ADDS METAR Data INFO
IDs: Format: Raw Decoded Include TAF

Data at: 1859 UTC 22 Sep 2017

METAR for:PANC (Anchorage Intl, AK, US)
Text:PANC 221853Z 34005KT 10SM BKN004 BKN008 OVC050 08/07 A2961 RMK AO2 RAB20E52 SLP027 P0000 T00780067
Temperature: 7.8°C ( 46°F)
Dewpoint: 6.7°C ( 44°F) [RH = 93%]
Pressure (altimeter):29.61 inches Hg (1002.8 mb) [Sea level pressure: 1002.7 mb]
Winds:from the NNW (340 degrees) at 6 MPH (5 knots; 2.6 m/s)
Visibility:10 or more sm (16+ km)
Ceiling:400 feet AGL
Clouds: broken clouds at 400 feet AGL, broken clouds at 800 feet AGL, overcast cloud deck at 5000 feet AGL
Text:PANC 221753Z 35006KT 10SM BKN004 BKN008 OVC050 08/07 A2959 RMK AO2 RAE32 SLP022 P0002 60007 T00780067 10078 20078 58002
Temperature: 7.8°C ( 46°F)
Dewpoint: 6.7°C ( 44°F) [RH = 93%]
Pressure (altimeter):29.59 inches Hg (1002.1 mb) [Sea level pressure: 1002.2 mb]
Winds:from the N (350 degrees) at 7 MPH (6 knots; 3.1 m/s)
Visibility:10 or more sm (16+ km)
Ceiling:400 feet AGL
Clouds: broken clouds at 400 feet AGL, broken clouds at 800 feet AGL, overcast cloud deck at 5000 feet AGL
Text:PANC 221653Z COR 01004KT 10SM -RA BKN005 BKN047 OVC055 08/07 A2959 RMK AO2 RAB1556E27B50 SLP022 P0001 T00780067
Temperature: 7.8°C ( 46°F)
Dewpoint: 6.7°C ( 44°F) [RH = 93%]
Pressure (altimeter):29.59 inches Hg (1002.1 mb) [Sea level pressure: 1002.2 mb]
Winds:from the N (10 degrees) at 5 MPH (4 knots; 2.1 m/s)
Visibility:10 or more sm (16+ km)
Ceiling:500 feet AGL
Clouds: broken clouds at 500 feet AGL, broken clouds at 4700 feet AGL, overcast cloud deck at 5500 feet AGL
Weather:-RA (light rain)
Text:PANC 221644Z 36003KT 10SM SCT004 BKN047 OVC056 08/07 A2959 RMK AO2 RAB1556E27 P0001 T00780067
Temperature: 7.8°C ( 46°F)
Dewpoint: 6.7°C ( 44°F) [RH = 93%]
Pressure (altimeter):29.59 inches Hg (1002.1 mb)
Winds:from the N (360 degrees) at 3 MPH (3 knots; 1.5 m/s)
Visibility:10 or more sm (16+ km)
Ceiling:4700 feet AGL
Clouds: scattered clouds at 400 feet AGL, broken clouds at 4700 feet AGL, overcast cloud deck at 5600 feet AGL
Text:PANC 221553Z 35006KT 10SM BKN004 BKN047 OVC056 08/07 A2960 RMK AO2 RAB27E42 SLP024 P0001 T00780067
Temperature: 7.8°C ( 46°F)
Dewpoint: 6.7°C ( 44°F) [RH = 93%]
Pressure (altimeter):29.60 inches Hg (1002.5 mb) [Sea level pressure: 1002.4 mb]
Winds:from the N (350 degrees) at 7 MPH (6 knots; 3.1 m/s)
Visibility:10 or more sm (16+ km)
Ceiling:400 feet AGL
Clouds: broken clouds at 400 feet AGL, broken clouds at 4700 feet AGL, overcast cloud deck at 5600 feet AGL
Text:PANC 221527Z 01006KT 10SM -RA SCT004 OVC047 08/07 A2960 RMK AO2 RAB27 SCT V BKN P0000 T00780067
Temperature: 7.8°C ( 46°F)
Dewpoint: 6.7°C ( 44°F) [RH = 93%]
Pressure (altimeter):29.60 inches Hg (1002.5 mb)
Winds:from the N (10 degrees) at 7 MPH (6 knots; 3.1 m/s)
Visibility:10 or more sm (16+ km)
Ceiling:4700 feet AGL
Clouds: scattered clouds at 400 feet AGL, overcast cloud deck at 4700 feet AGL
Weather:-RA (light rain)
Text:PANC 221453Z 35007KT 10SM BKN004 OVC047 08/07 A2960 RMK AO2 RAE29B50E51 SLP024 P0000 60003 T00780067 56009
Temperature: 7.8°C ( 46°F)
Dewpoint: 6.7°C ( 44°F) [RH = 93%]
Pressure (altimeter):29.60 inches Hg (1002.5 mb) [Sea level pressure: 1002.4 mb]
Winds:from the N (350 degrees) at 8 MPH (7 knots; 3.6 m/s)
Visibility:10 or more sm (16+ km)
Ceiling:400 feet AGL
Clouds: broken clouds at 400 feet AGL, overcast cloud deck at 4700 feet AGL
Text:PANC 221400Z 35005KT 9SM -RA FEW003 OVC050 08/07 A2960 RMK AO2 P0000 T00780067
Temperature: 7.8°C ( 46°F)
Dewpoint: 6.7°C ( 44°F) [RH = 93%]
Pressure (altimeter):29.60 inches Hg (1002.5 mb)
Winds:from the N (350 degrees) at 6 MPH (5 knots; 2.6 m/s)
Visibility: 9 sm ( 14 km)
Ceiling:5000 feet AGL
Clouds: few clouds at 300 feet AGL, overcast cloud deck at 5000 feet AGL
Weather:-RA (light rain)
Text:PANC 221353Z 35005KT 9SM -RA OVC046 08/07 A2960 RMK AO2 RAE1258B49 SLP025 P0000 T00780067
Temperature: 7.8°C ( 46°F)
Dewpoint: 6.7°C ( 44°F) [RH = 93%]
Pressure (altimeter):29.60 inches Hg (1002.5 mb) [Sea level pressure: 1002.5 mb]
Winds:from the N (350 degrees) at 6 MPH (5 knots; 2.6 m/s)
Visibility: 9 sm ( 14 km)
Ceiling:4600 feet AGL
Clouds: overcast cloud deck at 4600 feet AGL
Weather:-RA (light rain)

TAF for:PANC (Anchorage Intl, AK, US) issued at 1740 UTC 22 Sep 2017
Text:PANC 221740Z 2218/2324 02007KT P6SM -RA SCT005 OVC045
Forecast period:1800 to 2200 UTC 22 September 2017
Forecast type:FROM: standard forecast or significant change
Winds:from the NNE (20 degrees) at 8 MPH (7 knots; 3.6 m/s)
Visibility:6 or more sm (10+ km)
Ceiling:4500 feet AGL
Clouds: scattered clouds at 500 feet AGL, overcast cloud deck at 4500 feet AGL
Weather:-RA (light rain)
Text:TEMPO 2218/2220 BKN005
Forecast period:1800 to 2000 UTC 22 September 2017
Forecast type:TEMPORARY: The following changes expected for less than half the time period
Ceiling:500 feet AGL
Clouds: broken clouds at 500 feet AGL
Text:FM222200 14007KT P6SM -RA FEW010 OVC050
Forecast period:2200 UTC 22 September 2017 to 0100 UTC 23 September 2017
Forecast type:FROM: standard forecast or significant change
Winds:from the SE (140 degrees) at 8 MPH (7 knots; 3.6 m/s)
Visibility:6 or more sm (10+ km)
Ceiling:5000 feet AGL
Clouds: few clouds at 1000 feet AGL, overcast cloud deck at 5000 feet AGL
Weather:-RA (light rain)
Text:FM230100 15012G18KT P6SM -RA SCT025 OVC050
Forecast period:0100 to 1200 UTC 23 September 2017
Forecast type:FROM: standard forecast or significant change
Winds:from the SSE (150 degrees) at 14 MPH (12 knots; 6.2 m/s) gusting to 21 MPH (18 knots; 9.3 m/s)
Visibility:6 or more sm (10+ km)
Ceiling:5000 feet AGL
Clouds: scattered clouds at 2500 feet AGL, overcast cloud deck at 5000 feet AGL
Weather:-RA (light rain)
Text:FM231200 VRB04KT P6SM FEW010 SCT050 OVC080
Forecast period:1200 UTC 23 September 2017 to 0000 UTC 24 September 2017
Forecast type:FROM: standard forecast or significant change
Winds:variable direction winds at 5 MPH (4 knots; 2.1 m/s)
Visibility:6 or more sm (10+ km)
Ceiling:8000 feet AGL
Clouds: few clouds at 1000 feet AGL, scattered clouds at 5000 feet AGL, overcast cloud deck at 8000 feet AGL